Главная страница
METAR-TAF:

METAR-TAF

Аэропорты :

Ургенч, Узбекистан

широта: 41-35N, долгота: 060-38-42E, высота над уровнем моря: 98 м

Текущие метеонаблюдения

Эта сводка был подготовлена 40 минут назад, в 02:30 UTC
Ветер 4 Узел от северо-восточный
Температура 21°C
Влажность 43%
Давление 1013 hPa
Видимость 10 км и более
Нет облачности ниже 1500 м, и нет кучево-дождевой облачности

METAR: UTNU 170230Z 05004KT CAVOK 21/08 Q1013 R31/CLRD70 NOSIG

Время: 08:10 (03:10 UTC)

Прогноз

Эта сводка был подготовлена 4 часа и 7 минут назад, в 23:03 UTC
Прогноз действительный с 17-го 00 UTC до 17-го 24 UTC
Ветер 10 Узел от северо-восточный с порывами до 20 Узел
Видимость: 8000 м
временами
С 17-го 00 UTC до 17-го 06 UTC
Ветер 12 Узел от восточно-юго-восточный с порывами до 22 Узел
Отдельные облака на высоте 4000 фута, Кучево-дождевые.
Рассеянная облачность на высоте 10000 фута

TAF: UTNU 162303Z 1700/1724 04010G20KT 8000 NSC TEMPO 1700/1706 11012G22KT SCT040CB BKN100

Метеонаблюдения и прогнозы для более 4000 аэропортов (сводки METAR и TAF).

Имеющиеся станции представлены на карте желтыми и красными точками.

Чтобы увидеть название станции, наведите на нее мышь.

Затем щелкните, чтобы увидеть метеонаблюдения и метеопрогнозы.

Управление картой: чтобы увеличить масштаб, щелкните зеленые кнопки с черным крестиком; чтобы уменьшить масштаб, щелкните зеленую кнопку с тире; для просмотра соседних карт щелкайте зеленые стрелки.


METAR-TAF: